Huvudsida
METAR-TAF:

METAR-TAF

Flygplatser :

Al-Jubayl, Saudiarabien

latitud: 27-02-20N, longitud: 49-24-18E, höjd: 8 m

Aktuellt väderrapport

Denna rapport gjordes för 21 minuter sedan, klockan 04:00 UTC
Vind 11 kt från väst
Temperatur 12°C
Fuktighet 58%
Tryck 1017 hPa
Sikt: 6000 m
Få moln på en höjd av 4000 ft

METAR: OEJB 200400Z AUTO 28011KT 6000 FEW040 12/04 Q1017 NOSIG

Tid: 07:21 (04:21 UTC)


TAF: saknas

Aktuella väderrapporter och prognoser från 4000 flygplatser (METAR- och TAF-rapporter).

De tillgängliga stationerna syns som gula och röda prickar på kartan.

För musen över prickarna för att se namnen på stationerna.

Klicka sedan för att få väderrapporter och prognoser.

För att ändra kartan: Klicka på de gröna knapparna med ett svart kors på för att zooma in; den gröna knappen med ett streck på för att zooma ut; eller på de gröna pilarna för angränsande kartor.


METAR-TAF: